Time;durP1;ratioP1;P1;durP2;ratioP2;P2;SDS_P1;SDS_P2;PMS_P1;PMS_P2;Temp;Humidity;BMP_temperature;BMP_pressure;BME280_temperature;BME280_humidity;BME280_pressure;Samples;Min_cycle;Max_cycle;Signal;HPM_P1;HPM_P2
2023/01/09 00:01:15;;;;;;;3.90;3.60;;;8.70;99.90;;;;;;5010954;28;20201;-67
2023/01/09 00:03:41;;;;;;;4.13;3.37;;;8.60;99.90;;;;;;5011491;28;20215;-67
2023/01/09 00:06:10;;;;;;;3.93;3.70;;;8.60;99.90;;;;;;4995912;28;20180;-67
2023/01/09 00:08:35;;;;;;;3.87;3.50;;;8.50;99.90;;;;;;4995692;28;20524;-67
2023/01/09 00:11:01;;;;;;;3.53;3.33;;;8.40;99.90;;;;;;4995781;28;20275;-67
2023/01/09 00:13:27;;;;;;;3.77;3.50;;;8.40;99.90;;;;;;4995648;28;20208;-67
2023/01/09 00:15:53;;;;;;;4.13;3.57;;;8.40;99.90;;;;;;4995423;28;20207;-67
2023/01/09 00:18:18;;;;;;;3.80;3.60;;;8.30;99.90;;;;;;4995776;28;20195;-68
2023/01/09 00:20:44;;;;;;;3.80;3.50;;;8.30;99.90;;;;;;4995951;28;20234;-67
2023/01/09 00:23:10;;;;;;;4.00;3.70;;;8.20;99.90;;;;;;4995333;28;20649;-67
2023/01/09 00:25:35;;;;;;;3.60;3.40;;;8.10;99.90;;;;;;4995959;28;20644;-67
2023/01/09 00:28:01;;;;;;;3.77;3.40;;;8.00;99.90;;;;;;5010765;28;20187;-68
2023/01/09 00:30:27;;;;;;;3.70;3.40;;;7.90;99.90;;;;;;4994300;28;20627;-67
2023/01/09 00:32:54;;;;;;;3.70;3.50;;;7.90;99.90;;;;;;4996668;28;20207;-69
2023/01/09 00:35:22;;;;;;;3.70;3.40;;;7.80;99.90;;;;;;5011020;28;20199;-69
2023/01/09 00:37:48;;;;;;;3.90;3.50;;;7.70;99.90;;;;;;5010678;28;20184;-68
2023/01/09 00:40:15;;;;;;;3.77;3.57;;;7.70;99.90;;;;;;4993667;28;20547;-69
2023/01/09 00:42:44;;;;;;;3.40;3.20;;;7.60;99.90;;;;;;4994116;28;20283;-68
2023/01/09 00:45:15;;;;;;;3.60;3.40;;;7.60;99.90;;;;;;4995482;28;20164;-67
2023/01/09 00:47:49;;;;;;;3.60;3.40;;;7.50;99.90;;;;;;4995086;28;20160;-67
2023/01/09 00:50:25;;;;;;;3.70;3.50;;;7.40;99.90;;;;;;4994946;28;20539;-67
2023/01/09 00:52:53;;;;;;;4.13;3.53;;;7.30;99.90;;;;;;4994804;28;20630;-67
2023/01/09 00:55:19;;;;;;;3.37;3.27;;;7.30;99.90;;;;;;4994911;28;20176;-67
2023/01/09 00:57:45;;;;;;;3.50;3.30;;;7.30;99.90;;;;;;5010038;28;20547;-67
2023/01/09 01:00:11;;;;;;;3.60;3.40;;;7.20;99.90;;;;;;4994929;28;20204;-67
2023/01/09 01:02:37;;;;;;;4.03;3.80;;;7.20;99.90;;;;;;4993439;28;20215;-67
2023/01/09 01:07:47;;;;;;;3.93;3.73;;;7.20;99.90;;;;;;4995173;28;20256;-67
2023/01/09 01:10:20;;;;;;;4.07;3.77;;;7.10;99.90;;;;;;5009679;28;20263;-66
2023/01/09 01:12:47;;;;;;;3.60;3.40;;;7.10;99.90;;;;;;4994790;28;20250;-67
2023/01/09 01:15:13;;;;;;;3.93;3.73;;;7.10;99.90;;;;;;4994774;28;20200;-67
2023/01/09 01:17:40;;;;;;;3.20;3.10;;;7.00;99.90;;;;;;4994653;28;20184;-67
2023/01/09 01:20:15;;;;;;;3.73;3.47;;;7.00;99.90;;;;;;4994549;28;20206;-67
2023/01/09 01:22:41;;;;;;;3.80;3.60;;;7.00;99.90;;;;;;4993340;28;20183;-67
2023/01/09 01:25:08;;;;;;;3.73;3.50;;;7.00;99.90;;;;;;4994566;28;20558;-67
2023/01/09 01:27:34;;;;;;;3.93;3.70;;;6.90;99.90;;;;;;5010099;28;20212;-67
2023/01/09 01:30:00;;;;;;;3.67;3.30;;;6.90;99.90;;;;;;4995216;28;20203;-67
2023/01/09 01:32:25;;;;;;;4.33;3.40;;;6.90;99.90;;;;;;4994791;28;20673;-67
2023/01/09 01:34:51;;;;;;;3.70;3.50;;;6.90;99.90;;;;;;5009891;28;20263;-67
2023/01/09 01:37:17;;;;;;;3.97;3.67;;;6.80;99.90;;;;;;4994040;28;20176;-66
2023/01/09 01:39:43;;;;;;;3.60;3.40;;;6.80;99.90;;;;;;4995121;28;20171;-66
2023/01/09 01:42:11;;;;;;;3.70;3.60;;;6.80;99.90;;;;;;4994384;28;20211;-67
2023/01/09 01:45:08;;;;;;;4.43;4.00;;;6.70;99.90;;;;;;4994998;28;20161;-67
2023/01/09 01:47:42;;;;;;;3.83;3.70;;;6.70;99.90;;;;;;4994609;28;20187;-67
2023/01/09 01:50:16;;;;;;;3.70;3.60;;;6.70;99.90;;;;;;5008991;28;20179;-67
2023/01/09 01:52:46;;;;;;;3.60;3.40;;;6.70;99.90;;;;;;4994546;28;20188;-67
2023/01/09 01:55:13;;;;;;;3.77;3.57;;;6.70;99.90;;;;;;4998713;28;20636;-67
2023/01/09 01:57:44;;;;;;;3.50;3.30;;;6.60;99.90;;;;;;5013196;28;20188;-67
2023/01/09 02:00:10;;;;;;;4.33;3.50;;;6.60;99.90;;;;;;4998305;28;20526;-68
2023/01/09 02:02:36;;;;;;;3.70;3.50;;;6.60;99.90;;;;;;4998045;28;20187;-67
2023/01/09 02:05:03;;;;;;;3.30;3.20;;;6.60;99.90;;;;;;4998044;28;20168;-67
2023/01/09 02:07:29;;;;;;;3.37;3.23;;;6.60;99.90;;;;;;4997891;28;20184;-67
2023/01/09 02:09:56;;;;;;;3.80;3.50;;;6.60;99.90;;;;;;4997758;28;20184;-68
2023/01/09 02:12:24;;;;;;;3.50;3.40;;;6.60;99.90;;;;;;4997890;28;20200;-67
2023/01/09 02:15:08;;;;;;;3.60;3.40;;;6.60;99.90;;;;;;4997936;28;20184;-67
2023/01/09 02:17:55;;;;;;;3.40;3.30;;;6.60;99.90;;;;;;4996546;28;20180;-67
2023/01/09 02:20:32;;;;;;;3.60;3.40;;;6.70;99.90;;;;;;4997996;28;20180;-67
2023/01/09 02:23:26;;;;;;;3.70;3.50;;;6.70;99.90;;;;;;5012928;28;20188;-67
2023/01/09 02:26:10;;;;;;;3.60;3.40;;;6.80;99.90;;;;;;4998151;28;20164;-67
2023/01/09 02:28:57;;;;;;;3.60;3.40;;;6.70;99.90;;;;;;4998047;28;20173;-67
2023/01/09 02:31:39;;;;;;;3.57;3.47;;;6.70;99.90;;;;;;4997414;28;20219;-67
2023/01/09 02:34:19;;;;;;;3.60;3.40;;;6.70;99.90;;;;;;4997479;28;20661;-67
2023/01/09 02:37:00;;;;;;;3.60;3.50;;;6.80;99.90;;;;;;4996069;28;20212;-67
2023/01/09 02:39:42;;;;;;;3.67;3.47;;;6.70;99.90;;;;;;4997244;28;20532;-67
2023/01/09 02:42:15;;;;;;;4.00;3.80;;;6.70;99.90;;;;;;4998181;28;20599;-67
2023/01/09 02:44:42;;;;;;;3.73;3.50;;;6.70;99.90;;;;;;4995944;28;20614;-66
2023/01/09 02:47:30;;;;;;;3.80;3.60;;;6.70;99.90;;;;;;5012059;28;20207;-67
2023/01/09 02:50:01;;;;;;;5.00;3.80;;;6.70;99.90;;;;;;4997056;28;20212;-66
2023/01/09 02:53:08;;;;;;;4.00;3.80;;;6.70;99.90;;;;;;4995461;28;20227;-66
2023/01/09 02:55:58;;;;;;;3.77;3.57;;;6.70;99.90;;;;;;4995918;28;20176;-67
2023/01/09 02:58:49;;;;;;;3.80;3.50;;;6.70;99.90;;;;;;5012179;28;20177;-67
2023/01/09 03:01:26;;;;;;;3.87;3.57;;;6.70;99.90;;;;;;4997071;28;20211;-67
2023/01/09 03:04:03;;;;;;;4.10;3.80;;;6.70;99.90;;;;;;4996457;28;20173;-67
2023/01/09 03:06:36;;;;;;;4.17;3.97;;;6.70;99.90;;;;;;4996773;28;20255;-67
2023/01/09 03:09:10;;;;;;;4.17;3.77;;;6.60;99.90;;;;;;4997323;28;20161;-67
2023/01/09 03:11:43;;;;;;;4.30;3.90;;;6.70;99.90;;;;;;4996797;28;20231;-67
2023/01/09 03:14:14;;;;;;;4.40;3.67;;;6.70;99.90;;;;;;4997332;28;20291;-67
2023/01/09 03:16:44;;;;;;;4.23;3.87;;;6.70;99.90;;;;;;4997187;28;20196;-67
2023/01/09 03:19:14;;;;;;;4.17;3.90;;;6.70;99.90;;;;;;4998567;28;20182;-67
2023/01/09 03:21:42;;;;;;;4.37;4.03;;;6.70;99.90;;;;;;5013995;28;20200;-68
2023/01/09 03:24:08;;;;;;;4.57;4.20;;;6.70;99.90;;;;;;4997051;28;20184;-67
2023/01/09 03:26:34;;;;;;;4.47;4.07;;;6.70;99.90;;;;;;4997735;28;20176;-67
2023/01/09 03:29:00;;;;;;;4.80;4.40;;;6.70;99.90;;;;;;4997097;28;20209;-67
2023/01/09 03:31:26;;;;;;;4.57;4.27;;;6.70;99.90;;;;;;5011788;28;20584;-66
2023/01/09 03:33:52;;;;;;;5.70;4.93;;;6.60;99.90;;;;;;4995972;28;20200;-66
2023/01/09 03:36:20;;;;;;;8.10;4.80;;;6.60;99.90;;;;;;4997060;28;20286;-67
2023/01/09 03:38:45;;;;;;;5.07;4.67;;;6.60;99.90;;;;;;4995209;28;20658;-67
2023/01/09 03:41:11;;;;;;;4.83;4.37;;;6.60;99.90;;;;;;5011271;28;20290;-67
2023/01/09 03:43:37;;;;;;;7.40;4.53;;;6.60;99.90;;;;;;4995259;28;20220;-67
2023/01/09 03:46:03;;;;;;;6.23;4.93;;;6.60;99.90;;;;;;5011301;28;20184;-67
2023/01/09 03:48:29;;;;;;;5.20;4.70;;;6.60;99.90;;;;;;4996233;28;20181;-67
2023/01/09 03:50:55;;;;;;;4.77;4.37;;;6.60;99.90;;;;;;4996078;28;20209;-67
2023/01/09 03:53:24;;;;;;;5.20;4.70;;;6.60;99.90;;;;;;4995897;28;20204;-67
2023/01/09 03:55:52;;;;;;;7.63;5.27;;;6.60;99.90;;;;;;4994831;28;20641;-67
2023/01/09 03:58:19;;;;;;;4.90;4.50;;;6.60;99.90;;;;;;4996261;28;20188;-68
2023/01/09 04:00:47;;;;;;;5.10;4.70;;;6.70;99.90;;;;;;4995893;28;20284;-67
2023/01/09 04:03:15;;;;;;;5.93;5.33;;;6.70;99.90;;;;;;4996129;28;20544;-67
2023/01/09 04:05:43;;;;;;;5.00;4.60;;;6.70;99.90;;;;;;4996468;28;20180;-68
2023/01/09 04:08:09;;;;;;;5.40;4.90;;;6.70;99.90;;;;;;4996142;28;20176;-67
2023/01/09 04:10:35;;;;;;;5.30;4.80;;;6.70;99.90;;;;;;4996208;28;20212;-67
2023/01/09 04:13:01;;;;;;;5.93;5.30;;;6.80;99.90;;;;;;4996016;28;20200;-67
2023/01/09 04:15:26;;;;;;;5.73;5.23;;;6.80;99.90;;;;;;4995663;28;20172;-67
2023/01/09 04:17:52;;;;;;;6.07;5.57;;;6.80;99.90;;;;;;4995336;28;20552;-69
2023/01/09 04:20:18;;;;;;;6.23;5.63;;;6.80;99.90;;;;;;5011196;28;20184;-66
2023/01/09 04:22:44;;;;;;;7.20;5.83;;;6.80;99.90;;;;;;4994237;28;20656;-67
2023/01/09 04:25:09;;;;;;;8.47;6.03;;;6.80;99.90;;;;;;4996562;28;20177;-67
2023/01/09 04:27:35;;;;;;;6.87;5.60;;;6.80;99.90;;;;;;4995751;28;20250;-67
2023/01/09 04:30:01;;;;;;;6.43;5.77;;;6.80;99.90;;;;;;5010856;28;20220;-67
2023/01/09 04:32:27;;;;;;;6.43;5.70;;;6.80;99.90;;;;;;4995309;28;20275;-67
2023/01/09 04:34:54;;;;;;;7.43;5.50;;;6.80;99.90;;;;;;4993983;28;20653;-67
2023/01/09 04:37:20;;;;;;;6.43;5.77;;;6.80;99.90;;;;;;4995200;28;20263;-67
2023/01/09 04:39:46;;;;;;;7.53;5.67;;;6.80;99.90;;;;;;4995517;28;20191;-67
2023/01/09 04:42:12;;;;;;;6.03;5.53;;;6.70;99.90;;;;;;4995192;28;20200;-68
2023/01/09 04:44:38;;;;;;;7.60;5.30;;;6.80;99.90;;;;;;4995113;28;20228;-67
2023/01/09 04:47:04;;;;;;;6.67;6.00;;;6.70;99.90;;;;;;4995580;28;20180;-67
2023/01/09 04:49:30;;;;;;;6.27;5.70;;;6.80;99.90;;;;;;4995164;28;20524;-67
2023/01/09 04:51:56;;;;;;;6.97;5.87;;;6.80;99.90;;;;;;5010000;28;20250;-67
2023/01/09 04:54:22;;;;;;;6.10;5.47;;;6.70;99.90;;;;;;5010053;28;20672;-67
2023/01/09 04:56:48;;;;;;;6.67;5.53;;;6.70;99.90;;;;;;4994976;28;20533;-67
2023/01/09 04:59:14;;;;;;;8.57;5.60;;;6.70;99.90;;;;;;4994912;28;20177;-67
2023/01/09 05:01:40;;;;;;;6.60;5.57;;;6.70;99.90;;;;;;4994762;28;20208;-67
2023/01/09 05:04:06;;;;;;;9.17;5.63;;;6.60;99.90;;;;;;4995039;28;20557;-67
2023/01/09 05:06:33;;;;;;;6.43;5.10;;;6.60;99.90;;;;;;4994778;28;20211;-67
2023/01/09 05:09:00;;;;;;;5.50;5.00;;;6.50;99.90;;;;;;4994637;28;20645;-67
2023/01/09 05:11:26;;;;;;;7.53;4.93;;;6.50;99.90;;;;;;4994742;28;20207;-67
2023/01/09 05:13:52;;;;;;;8.60;5.87;;;6.40;99.90;;;;;;4994774;28;20204;-67
2023/01/09 05:16:19;;;;;;;10.13;5.20;;;6.40;99.90;;;;;;4994659;28;20652;-67
2023/01/09 05:18:44;;;;;;;9.40;5.17;;;6.30;99.90;;;;;;4994752;28;20648;-67
2023/01/09 05:21:11;;;;;;;7.40;5.07;;;6.30;99.90;;;;;;4994788;28;20275;-67
2023/01/09 05:23:36;;;;;;;5.93;5.43;;;6.20;99.90;;;;;;4994473;28;20185;-67
2023/01/09 05:26:03;;;;;;;6.07;4.93;;;6.20;99.90;;;;;;5009509;28;20192;-67
2023/01/09 05:28:30;;;;;;;7.13;5.43;;;6.20;99.90;;;;;;4993729;28;20533;-67
2023/01/09 05:30:56;;;;;;;8.30;5.40;;;6.10;99.90;;;;;;4994402;28;20339;-67
2023/01/09 05:33:21;;;;;;;5.97;4.87;;;6.10;99.90;;;;;;5009705;28;20291;-67
2023/01/09 05:35:47;;;;;;;11.33;5.20;;;6.00;99.90;;;;;;4994484;28;20180;-67
2023/01/09 05:38:13;;;;;;;7.60;5.30;;;6.00;99.90;;;;;;4992630;28;20252;-67
2023/01/09 05:40:39;;;;;;;6.93;4.80;;;6.10;99.90;;;;;;4994423;28;20572;-67
2023/01/09 05:43:04;;;;;;;6.20;5.07;;;6.10;99.90;;;;;;4992996;28;20287;-67
2023/01/09 05:45:30;;;;;;;5.70;5.20;;;6.00;99.90;;;;;;5009406;28;20212;-67
2023/01/09 05:47:56;;;;;;;6.90;4.90;;;6.00;99.90;;;;;;4993505;28;20183;-66
2023/01/09 05:50:22;;;;;;;6.93;5.20;;;6.00;99.90;;;;;;5009510;28;20192;-66
2023/01/09 05:52:48;;;;;;;6.30;5.30;;;6.00;99.90;;;;;;4994729;28;20581;-67
2023/01/09 05:55:14;;;;;;;5.00;4.60;;;6.00;99.90;;;;;;5009586;28;20663;-67
2023/01/09 05:57:40;;;;;;;5.63;4.90;;;6.00;99.90;;;;;;5009484;28;20246;-67
2023/01/09 06:00:06;;;;;;;6.37;4.60;;;6.00;99.90;;;;;;5009363;28;20177;-67
2023/01/09 06:02:32;;;;;;;11.30;5.13;;;6.10;99.90;;;;;;5009434;28;20259;-65
2023/01/09 06:04:58;;;;;;;6.67;4.30;;;6.10;99.90;;;;;;4994117;28;20192;-65
2023/01/09 06:07:24;;;;;;;6.17;4.53;;;6.20;99.90;;;;;;4994146;28;20204;-65
2023/01/09 06:09:49;;;;;;;7.47;4.40;;;6.30;99.90;;;;;;4993906;28;20173;-65
2023/01/09 06:12:15;;;;;;;8.03;4.50;;;6.30;99.90;;;;;;4992930;28;20224;-65
2023/01/09 06:14:41;;;;;;;4.70;4.00;;;6.30;99.90;;;;;;4994773;28;20184;-65
2023/01/09 06:17:07;;;;;;;9.30;4.20;;;6.30;99.90;;;;;;4993818;28;20621;-65
2023/01/09 06:19:33;;;;;;;4.47;4.10;;;6.30;99.90;;;;;;5008867;28;20172;-65
2023/01/09 06:21:59;;;;;;;6.37;4.23;;;6.40;99.90;;;;;;4992876;28;20212;-65
2023/01/09 06:24:24;;;;;;;7.97;4.10;;;6.40;99.90;;;;;;5008877;28;20188;-65
2023/01/09 06:26:50;;;;;;;4.53;4.13;;;6.40;99.90;;;;;;4992813;28;20657;-65
2023/01/09 06:29:16;;;;;;;7.03;4.23;;;6.40;99.90;;;;;;4994365;28;20259;-65
2023/01/09 06:31:42;;;;;;;5.77;3.93;;;6.40;99.90;;;;;;4994257;28;20205;-65
2023/01/09 06:34:07;;;;;;;4.17;3.97;;;6.40;99.90;;;;;;4993711;28;20207;-65
2023/01/09 06:36:33;;;;;;;5.43;4.40;;;6.40;99.90;;;;;;4993696;28;20187;-65
2023/01/09 06:38:59;;;;;;;4.63;4.10;;;6.40;99.90;;;;;;4994352;28;20208;-64
2023/01/09 06:41:25;;;;;;;6.53;4.40;;;6.40;99.90;;;;;;5012198;28;20235;-65
2023/01/09 06:43:51;;;;;;;5.43;4.03;;;6.40;99.90;;;;;;5011920;28;20200;-65
2023/01/09 06:46:16;;;;;;;5.33;4.13;;;6.30;99.90;;;;;;4997091;28;20230;-65
2023/01/09 06:48:42;;;;;;;5.30;4.30;;;6.30;99.90;;;;;;4997381;28;20231;-66
2023/01/09 06:51:08;;;;;;;7.60;4.30;;;6.30;99.90;;;;;;4995762;28;20595;-66
2023/01/09 06:53:34;;;;;;;7.63;4.10;;;6.20;99.90;;;;;;4996918;28;20201;-65
2023/01/09 06:56:01;;;;;;;5.23;4.43;;;6.20;99.90;;;;;;5011694;28;20587;-66
2023/01/09 06:58:27;;;;;;;4.33;3.93;;;6.20;99.90;;;;;;4997452;28;20173;-66
2023/01/09 07:00:55;;;;;;;6.50;4.30;;;6.20;99.90;;;;;;4997188;28;20619;-66
2023/01/09 07:03:21;;;;;;;4.43;3.97;;;6.20;99.90;;;;;;4997237;28;20195;-66
2023/01/09 07:05:48;;;;;;;5.53;4.00;;;6.20;99.90;;;;;;4996876;28;20169;-66
2023/01/09 07:08:14;;;;;;;5.27;4.10;;;6.20;99.90;;;;;;4996752;28;20181;-66
2023/01/09 07:10:43;;;;;;;4.33;4.03;;;6.20;99.90;;;;;;4995423;28;20290;-66
2023/01/09 07:13:09;;;;;;;6.07;4.40;;;6.20;99.90;;;;;;4996964;28;20211;-66
2023/01/09 07:15:35;;;;;;;5.63;3.90;;;6.20;99.90;;;;;;4995445;28;20176;-67
2023/01/09 07:18:00;;;;;;;4.60;4.23;;;6.20;99.90;;;;;;4996996;28;20200;-66
2023/01/09 07:20:26;;;;;;;6.30;4.37;;;6.20;99.90;;;;;;4996559;28;20196;-66
2023/01/09 07:22:55;;;;;;;8.23;4.40;;;6.20;99.90;;;;;;4996494;28;20645;-66
2023/01/09 07:25:21;;;;;;;4.60;4.20;;;6.10;99.90;;;;;;4996708;28;20181;-66
2023/01/09 07:27:46;;;;;;;6.90;4.50;;;6.10;99.90;;;;;;4996751;28;20251;-66
2023/01/09 07:30:13;;;;;;;6.00;4.30;;;6.10;99.90;;;;;;4996735;28;20180;-66
2023/01/09 07:32:39;;;;;;;5.40;4.57;;;6.10;99.90;;;;;;4995334;28;20208;-66
2023/01/09 07:35:07;;;;;;;5.90;4.33;;;6.10;99.90;;;;;;5011664;28;20180;-66
2023/01/09 07:37:33;;;;;;;6.73;4.57;;;6.10;99.90;;;;;;4996077;28;20251;-65
2023/01/09 07:39:59;;;;;;;4.30;3.90;;;6.10;99.90;;;;;;4995965;28;20345;-66
2023/01/09 07:42:25;;;;;;;4.73;4.30;;;6.10;99.90;;;;;;4996034;28;20201;-66
2023/01/09 07:44:51;;;;;;;5.03;4.30;;;6.10;99.90;;;;;;4996637;28;20648;-66
2023/01/09 07:47:16;;;;;;;7.23;4.87;;;6.00;99.90;;;;;;4996223;28;20207;-66
2023/01/09 07:49:42;;;;;;;4.33;4.00;;;6.10;99.90;;;;;;4996662;28;20195;-66
2023/01/09 07:52:08;;;;;;;6.87;4.00;;;6.10;99.90;;;;;;4995285;28;20188;-66
2023/01/09 07:54:34;;;;;;;4.77;4.27;;;6.10;99.90;;;;;;4995905;28;20204;-67
2023/01/09 07:56:59;;;;;;;6.70;4.93;;;6.10;99.90;;;;;;5011159;28;20653;-66
2023/01/09 07:59:27;;;;;;;4.90;4.50;;;6.10;99.90;;;;;;4996147;28;20588;-66
2023/01/09 08:01:53;;;;;;;4.80;4.40;;;6.20;99.90;;;;;;4994439;28;20282;-66
2023/01/09 08:04:19;;;;;;;7.70;4.33;;;6.20;99.90;;;;;;4995990;28;20596;-66
2023/01/09 08:06:44;;;;;;;4.30;4.00;;;6.30;99.90;;;;;;4996008;28;20172;-67
2023/01/09 08:09:11;;;;;;;5.80;4.37;;;6.30;99.90;;;;;;4995794;28;20207;-67
2023/01/09 08:11:37;;;;;;;7.03;4.50;;;6.30;99.90;;;;;;4995799;28;20200;-67
2023/01/09 08:14:02;;;;;;;5.43;4.73;;;6.40;99.90;;;;;;4995097;28;20216;-66
2023/01/09 08:16:34;;;;;;;5.40;4.30;;;6.40;99.90;;;;;;5010601;28;20212;-66
2023/01/09 08:19:02;;;;;;;9.63;4.60;;;6.40;99.90;;;;;;4995481;28;20517;-66
2023/01/09 08:21:29;;;;;;;5.87;4.27;;;6.40;99.90;;;;;;4977958;28;20209;-67
2023/01/09 08:23:56;;;;;;;5.70;5.03;;;6.40;99.90;;;;;;5010646;28;20195;-67
2023/01/09 08:26:26;;;;;;;4.83;4.23;;;6.50;99.90;;;;;;4994334;28;20181;-66
2023/01/09 08:28:55;;;;;;;5.63;4.50;;;6.40;99.90;;;;;;4993650;28;20704;-66
2023/01/09 08:31:22;;;;;;;5.17;4.10;;;6.50;99.90;;;;;;4981133;28;20229;-66
2023/01/09 08:33:55;;;;;;;4.83;4.43;;;6.50;99.90;;;;;;4976345;28;20224;-66
2023/01/09 08:36:26;;;;;;;9.27;4.47;;;6.50;99.90;;;;;;4975156;28;20185;-66
2023/01/09 08:39:02;;;;;;;4.83;4.13;;;6.50;99.90;;;;;;4974983;28;20176;-67
2023/01/09 08:47:06;;;;;;;4.47;4.10;;;6.60;99.90;;;;;;4975691;28;20176;-66
2023/01/09 08:49:38;;;;;;;5.70;4.27;;;6.60;99.90;;;;;;4974263;28;20200;-67
2023/01/09 08:52:14;;;;;;;4.10;3.80;;;6.60;99.90;;;;;;4973398;28;20231;-67
2023/01/09 08:54:41;;;;;;;4.43;4.13;;;6.60;99.90;;;;;;4974747;28;20207;-67
2023/01/09 08:57:14;;;;;;;4.00;3.80;;;6.60;99.90;;;;;;4991320;28;20189;-67
2023/01/09 08:59:41;;;;;;;5.17;4.27;;;6.60;99.90;;;;;;4974620;28;20630;-67
2023/01/09 09:02:08;;;;;;;4.20;3.90;;;6.60;99.90;;;;;;4992224;28;20638;-67
2023/01/09 09:04:35;;;;;;;6.80;4.03;;;6.60;99.90;;;;;;4995280;28;20264;-67
2023/01/09 09:07:02;;;;;;;5.30;4.80;;;6.60;99.90;;;;;;4994381;28;20555;-66
2023/01/09 09:09:28;;;;;;;4.10;3.90;;;6.60;99.90;;;;;;4993098;28;20188;-67
2023/01/09 09:11:54;;;;;;;4.50;4.10;;;6.70;99.90;;;;;;4993868;28;20296;-67
2023/01/09 09:17:06;;;;;;;5.27;4.40;;;6.70;99.90;;;;;;4995580;28;20179;-67
2023/01/09 09:19:33;;;;;;;6.67;4.40;;;6.70;99.90;;;;;;4994845;28;20186;-67
2023/01/09 09:21:59;;;;;;;4.40;4.00;;;6.70;99.90;;;;;;4993478;28;20208;-67
2023/01/09 09:24:28;;;;;;;6.77;4.40;;;6.70;99.90;;;;;;4961253;28;20603;-67
2023/01/09 09:26:54;;;;;;;4.80;4.10;;;6.80;99.90;;;;;;4993531;28;20184;-67
2023/01/09 09:29:21;;;;;;;5.30;4.23;;;6.90;99.90;;;;;;4977639;28;20544;-67
2023/01/09 09:31:50;;;;;;;4.90;4.47;;;7.00;99.90;;;;;;4995240;28;20235;-66
2023/01/09 09:34:16;;;;;;;4.20;3.90;;;7.10;99.90;;;;;;4994148;28;20211;-66
2023/01/09 09:36:56;;;;;;;3.93;3.73;;;7.20;99.90;;;;;;4993450;28;20181;-66
2023/01/09 09:39:28;;;;;;;4.10;3.70;;;7.30;99.90;;;;;;4978122;28;20201;-66
2023/01/09 09:45:25;;;;;;;5.87;3.90;;;7.60;99.90;;;;;;4994725;28;20175;-67
2023/01/09 09:48:13;;;;;;;6.53;3.90;;;7.70;99.90;;;;;;4995260;28;20184;-66
2023/01/09 09:50:44;;;;;;;7.37;4.27;;;7.80;99.90;;;;;;4992823;28;20212;-66
2023/01/09 09:53:47;;;;;;;4.33;3.70;;;7.70;99.90;;;;;;4994526;28;20585;-67
2023/01/09 09:56:17;;;;;;;9.23;4.07;;;7.70;99.90;;;;;;4993032;28;20648;-66
2023/01/09 09:58:56;;;;;;;4.57;3.67;;;7.70;99.90;;;;;;4993260;28;20630;-67
2023/01/09 10:01:29;;;;;;;3.83;3.60;;;7.60;99.90;;;;;;4993276;28;20668;-67
2023/01/09 10:03:59;;;;;;;3.57;3.37;;;7.60;99.90;;;;;;4993357;28;20640;-67
2023/01/09 10:06:41;;;;;;;8.00;3.87;;;7.60;99.90;;;;;;4993490;28;20213;-67
2023/01/09 10:09:23;;;;;;;4.90;3.80;;;7.60;99.90;;;;;;4993260;28;20649;-67
2023/01/09 10:12:02;;;;;;;3.60;3.40;;;7.70;99.90;;;;;;4993123;28;20631;-66
2023/01/09 10:14:32;;;;;;;4.10;3.50;;;7.70;99.90;;;;;;5011366;28;20208;-67
2023/01/09 10:17:11;;;;;;;4.97;3.70;;;7.70;99.90;;;;;;4996320;28;20668;-67
2023/01/09 10:19:54;;;;;;;6.30;4.00;;;7.70;99.90;;;;;;4998043;28;20196;-67
2023/01/09 10:22:41;;;;;;;4.83;3.83;;;7.70;99.90;;;;;;5013127;28;20672;-66
2023/01/09 10:25:45;;;;;;;4.40;4.10;;;7.70;99.90;;;;;;4997984;28;20692;-66
2023/01/09 10:29:00;;;;;;;4.63;3.83;;;7.70;99.90;;;;;;4990839;28;20199;-67
2023/01/09 10:31:48;;;;;;;5.90;4.27;;;7.60;99.90;;;;;;4997628;28;20220;-66
2023/01/09 10:34:47;;;;;;;7.57;4.30;;;7.50;99.90;;;;;;5012750;28;20231;-67
2023/01/09 10:37:24;;;;;;;4.40;4.00;;;7.40;99.90;;;;;;5012826;28;20219;-66
2023/01/09 10:40:25;;;;;;;6.53;4.40;;;7.40;99.90;;;;;;4996314;28;20184;-66
2023/01/09 10:43:04;;;;;;;4.13;3.87;;;7.40;99.90;;;;;;4996253;28;20204;-67
2023/01/09 10:45:49;;;;;;;7.60;4.07;;;7.40;99.90;;;;;;4980301;28;20605;-67
2023/01/09 10:48:28;;;;;;;6.33;4.27;;;7.40;99.90;;;;;;4997394;28;20164;-67
2023/01/09 10:50:55;;;;;;;4.47;3.90;;;7.40;99.90;;;;;;5012359;28;20214;-66
2023/01/09 10:53:28;;;;;;;4.73;4.20;;;7.50;99.90;;;;;;4995655;28;20212;-66
2023/01/09 10:56:03;;;;;;;4.50;4.10;;;7.50;99.90;;;;;;4997503;28;20216;-66
2023/01/09 10:58:32;;;;;;;4.80;4.40;;;7.50;99.90;;;;;;5012519;28;20278;-66
2023/01/09 11:01:05;;;;;;;5.13;4.60;;;7.50;99.90;;;;;;5011909;28;20752;-66
2023/01/09 11:03:31;;;;;;;5.00;4.50;;;7.50;99.90;;;;;;4996022;28;20191;-66
2023/01/09 11:05:59;;;;;;;5.30;4.90;;;7.50;99.90;;;;;;4996103;28;20184;-67
2023/01/09 11:08:28;;;;;;;8.47;4.83;;;7.50;99.90;;;;;;4994931;28;20238;-66
2023/01/09 11:10:56;;;;;;;5.27;4.77;;;7.50;99.90;;;;;;4996157;28;20730;-65
2023/01/09 11:13:22;;;;;;;4.80;4.40;;;7.50;99.90;;;;;;4997685;28;20208;-68
2023/01/09 11:16:18;;;;;;;5.10;4.67;;;7.50;99.90;;;;;;4997706;28;20184;-64
2023/01/09 11:18:53;;;;;;;4.73;4.33;;;7.50;99.90;;;;;;5010988;28;20552;-65
2023/01/09 11:21:39;;;;;;;6.00;4.63;;;7.60;99.90;;;;;;5012182;28;20694;-64
2023/01/09 11:24:20;;;;;;;5.83;4.80;;;7.60;99.90;;;;;;5011949;28;20184;-65
2023/01/09 11:26:48;;;;;;;5.43;4.60;;;7.60;99.90;;;;;;5011099;28;20188;-64
2023/01/09 11:29:17;;;;;;;7.63;5.10;;;7.60;99.90;;;;;;4996884;28;20185;-64
2023/01/09 11:31:52;;;;;;;5.97;4.90;;;7.60;99.90;;;;;;4996702;28;20731;-64
2023/01/09 11:34:21;;;;;;;5.27;4.87;;;7.60;99.90;;;;;;4996815;28;20202;-63
2023/01/09 11:36:48;;;;;;;8.13;4.77;;;7.60;99.90;;;;;;4996464;28;20236;-63
2023/01/09 11:39:24;;;;;;;6.83;5.20;;;7.60;99.90;;;;;;4996596;28;20176;-63
2023/01/09 11:41:58;;;;;;;4.97;4.57;;;7.60;99.90;;;;;;4996520;28;20231;-64
2023/01/09 11:44:24;;;;;;;5.13;4.63;;;7.60;99.90;;;;;;4996695;28;20192;-64
2023/01/09 11:46:50;;;;;;;7.77;4.60;;;7.50;99.90;;;;;;4996245;28;20176;-69
2023/01/09 11:49:16;;;;;;;5.33;4.70;;;7.50;99.90;;;;;;4995458;28;20612;-65
2023/01/09 11:51:43;;;;;;;6.20;4.50;;;7.50;99.90;;;;;;5011527;28;20296;-65
2023/01/09 11:54:24;;;;;;;6.17;4.40;;;7.60;99.90;;;;;;4996568;28;20212;-67
2023/01/09 11:56:50;;;;;;;5.53;4.50;;;7.60;99.90;;;;;;5011446;28;20176;-65
2023/01/09 11:59:19;;;;;;;5.33;4.87;;;7.60;99.90;;;;;;4995207;28;20311;-65
2023/01/09 12:02:15;;;;;;;5.27;4.83;;;7.60;99.90;;;;;;4980944;28;20201;-65
2023/01/09 12:05:10;;;;;;;8.07;4.57;;;7.70;99.90;;;;;;4976910;28;20256;-65
2023/01/09 12:07:35;;;;;;;6.17;4.87;;;7.70;99.90;;;;;;4975536;28;20217;-65
2023/01/09 12:10:10;;;;;;;6.70;5.00;;;7.80;99.90;;;;;;4975400;28;20188;-65
2023/01/09 12:13:02;;;;;;;6.37;4.97;;;7.80;99.90;;;;;;4976640;28;20207;-65
2023/01/09 12:15:28;;;;;;;7.07;4.90;;;7.80;99.90;;;;;;4977057;28;20201;-67
2023/01/09 12:18:31;;;;;;;6.40;4.70;;;7.80;99.90;;;;;;4974960;28;20661;-67
2023/01/09 12:21:24;;;;;;;9.13;5.37;;;7.80;99.90;;;;;;4991407;28;20259;-67
2023/01/09 12:24:09;;;;;;;6.80;5.43;;;7.70;99.90;;;;;;4975956;28;20170;-67
2023/01/09 12:27:10;;;;;;;7.50;4.70;;;7.70;99.90;;;;;;4976674;28;20177;-67
2023/01/09 12:29:56;;;;;;;8.03;4.93;;;7.70;99.90;;;;;;4976225;28;20174;-67
2023/01/09 12:32:33;;;;;;;7.03;5.00;;;7.80;99.90;;;;;;4976157;28;20223;-67
2023/01/09 12:35:19;;;;;;;5.60;4.70;;;7.90;99.90;;;;;;4976183;28;20211;-67
2023/01/09 12:37:45;;;;;;;6.27;4.13;;;7.90;99.90;;;;;;4975956;28;20630;-67
2023/01/09 12:40:38;;;;;;;6.90;4.77;;;7.90;99.90;;;;;;4976430;28;20169;-67
2023/01/09 12:43:04;;;;;;;5.00;4.50;;;7.90;99.90;;;;;;4975531;28;20563;-67
2023/01/09 12:45:54;;;;;;;5.80;5.17;;;7.90;99.90;;;;;;4975851;28;20196;-67
2023/01/09 12:48:25;;;;;;;7.10;4.50;;;7.90;99.90;;;;;;4975387;28;20638;-66
2023/01/09 12:51:09;;;;;;;4.83;4.43;;;7.80;99.90;;;;;;4975118;28;20280;-66
2023/01/09 12:53:51;;;;;;;5.73;4.80;;;7.90;99.90;;;;;;4975323;28;20209;-66
2023/01/09 12:56:25;;;;;;;5.13;4.43;;;7.90;99.90;;;;;;4976142;28;20516;-67
2023/01/09 12:59:05;;;;;;;5.10;4.50;;;7.90;99.90;;;;;;4975601;28;20693;-66
2023/01/09 13:01:41;;;;;;;5.70;4.50;;;7.90;99.90;;;;;;4988465;28;20210;-67
2023/01/09 13:04:43;;;;;;;8.47;4.00;;;7.90;99.90;;;;;;4995402;28;20164;-67
2023/01/09 13:07:16;;;;;;;4.63;4.03;;;7.90;99.90;;;;;;4935107;29;20189;-67
2023/01/09 13:09:50;;;;;;;10.80;4.90;;;7.90;99.90;;;;;;4986143;28;20277;-67
2023/01/09 13:12:20;;;;;;;4.83;4.37;;;7.90;99.90;;;;;;4993518;28;20259;-67
2023/01/09 13:14:46;;;;;;;9.20;5.00;;;7.80;99.90;;;;;;4995047;28;20204;-67
2023/01/09 13:17:24;;;;;;;6.73;4.73;;;7.80;99.90;;;;;;4994821;28;20176;-67
2023/01/09 13:19:49;;;;;;;4.53;4.13;;;7.80;99.90;;;;;;4993667;28;20180;-66
2023/01/09 13:22:17;;;;;;;5.57;4.70;;;7.70;99.90;;;;;;4994920;28;20250;-67
2023/01/09 13:24:54;;;;;;;6.87;4.80;;;7.70;99.90;;;;;;5009934;28;20193;-66
2023/01/09 13:27:23;;;;;;;6.20;4.40;;;7.80;99.90;;;;;;4994619;28;20283;-66
2023/01/09 13:30:05;;;;;;;10.30;4.40;;;7.80;99.90;;;;;;4994365;28;20189;-66
2023/01/09 13:32:50;;;;;;;12.20;4.90;;;7.70;99.90;;;;;;4995637;28;20215;-66